Time;durP1;ratioP1;P1;durP2;ratioP2;P2;SDS_P1;SDS_P2;PMS_P1;PMS_P2;Temp;Humidity;BMP_temperature;BMP_pressure;BME280_temperature;BME280_humidity;BME280_pressure;Samples;Min_cycle;Max_cycle;Signal;HPM_P1;HPM_P2
2022/11/16 00:01:37;;;;;;;;;;;;;;;8.67;89.62;98908.44;5073266;28;19931;-71
2022/11/16 00:04:05;;;;;;;;;;;;;;;8.66;89.98;98907.56;5073504;28;19932;-71
2022/11/16 00:06:34;;;;;;;;;;;;;;;8.65;89.14;98905.06;5073195;28;19925;-71
2022/11/16 00:11:43;;;;;;;;;;;;;;;8.67;89.10;98908.44;5076779;28;19975;-71
2022/11/16 00:14:11;;;;;;;;;;;;;;;8.64;89.40;98910.97;5076933;28;19931;-71
2022/11/16 00:16:40;;;;;;;;;;;;;;;8.62;89.40;98905.06;5077184;28;19924;-71
2022/11/16 00:19:10;;;;;;;;;;;;;;;8.63;90.00;98896.59;5076573;28;19928;-71
2022/11/16 00:21:38;;;;;;;;;;;;;;;8.64;89.88;98894.03;5076882;28;19978;-71
2022/11/16 00:24:07;;;;;;;;;;;;;;;8.66;89.77;98896.59;5076445;28;19925;-71
2022/11/16 00:26:35;;;;;;;;;;;;;;;8.65;89.70;98905.06;5075170;28;20436;-72
2022/11/16 00:29:05;;;;;;;;;;;;;;;8.61;90.03;98898.31;5076424;28;19931;-72
2022/11/16 00:31:34;;;;;;;;;;;;;;;8.61;90.08;98893.22;5075262;28;19931;-71
2022/11/16 00:34:02;;;;;;;;;;;;;;;8.60;90.12;98879.66;5075087;28;19931;-71
2022/11/16 00:36:30;;;;;;;;;;;;;;;8.62;89.68;98880.47;5076272;28;19928;-71
2022/11/16 00:38:59;;;;;;;;;;;;;;;8.64;90.12;98880.47;5076206;28;20382;-71
2022/11/16 00:41:27;;;;;;;;;;;;;;;8.62;90.11;98882.19;5076206;28;19924;-71
2022/11/16 00:43:56;;;;;;;;;;;;;;;8.64;90.03;98880.47;5076098;28;19966;-71
2022/11/16 00:46:26;;;;;;;;;;;;;;;8.67;90.26;98883.84;5074897;28;19924;-71
2022/11/16 00:48:55;;;;;;;;;;;;;;;8.67;90.24;98878.75;5076478;28;19924;-71
2022/11/16 00:51:23;;;;;;;;;;;;;;;8.70;90.27;98880.44;5074814;28;20007;-71
2022/11/16 00:53:51;;;;;;;;;;;;;;;8.71;90.18;98884.66;5075019;28;20363;-71
2022/11/16 00:56:21;;;;;;;;;;;;;;;8.70;90.35;98878.75;5075920;28;19924;-71
2022/11/16 00:58:50;;;;;;;;;;;;;;;8.70;90.02;98878.75;5074688;28;19928;-71
2022/11/16 01:01:18;;;;;;;;;;;;;;;8.69;89.98;98876.19;5074629;28;19925;-71
2022/11/16 01:03:48;;;;;;;;;;;;;;;8.70;90.04;98867.72;5075785;28;19964;-71
2022/11/16 01:06:17;;;;;;;;;;;;;;;8.69;90.18;98871.97;5074463;28;19931;-71
2022/11/16 01:08:45;;;;;;;;;;;;;;;8.69;89.98;98850.75;5074483;28;19924;-71
2022/11/16 01:13:52;;;;;;;;;;;;;;;8.67;90.00;98838.06;5075618;28;19936;-71
2022/11/16 01:16:22;;;;;;;;;;;;;;;8.65;89.82;98838.94;5074253;28;19931;-71
2022/11/16 01:18:53;;;;;;;;;;;;;;;8.61;90.07;98838.09;5075559;28;19935;-71
2022/11/16 01:21:22;;;;;;;;;;;;;;;8.62;90.20;98838.94;5075308;28;19924;-71
2022/11/16 01:23:51;;;;;;;;;;;;;;;8.62;90.18;98836.41;5074040;28;20032;-71
2022/11/16 01:26:19;;;;;;;;;;;;;;;8.63;90.39;98830.47;5075211;28;19979;-71
2022/11/16 01:28:48;;;;;;;;;;;;;;;8.65;89.95;98826.22;5074091;28;19924;-71
2022/11/16 01:31:16;;;;;;;;;;;;;;;8.65;90.39;98823.66;5075800;28;19925;-71
2022/11/16 01:33:46;;;;;;;;;;;;;;;8.65;89.92;98821.13;5073819;28;19954;-71
2022/11/16 01:36:26;;;;;;;;;;;;;;;8.68;89.86;98821.09;5075089;28;19929;-71
2022/11/16 01:38:57;;;;;;;;;;;;;;;8.72;90.01;98830.41;5075120;28;20006;-71
2022/11/16 01:41:30;;;;;;;;;;;;;;;8.71;89.63;98821.06;5075392;28;19932;-71
2022/11/16 01:44:01;;;;;;;;;;;;;;;8.70;89.85;98817.69;5075024;28;19924;-71
2022/11/16 01:46:42;;;;;;;;;;;;;;;8.65;90.31;98814.34;5074825;28;19925;-71
2022/11/16 01:49:14;;;;;;;;;;;;;;;8.65;89.57;98813.50;5075234;28;19959;-71
2022/11/16 01:51:47;;;;;;;;;;;;;;;8.62;90.16;98803.34;5074815;28;19924;-71
2022/11/16 01:54:16;;;;;;;;;;;;;;;8.58;89.79;98796.59;5073657;28;19978;-71
2022/11/16 01:56:56;;;;;;;;;;;;;;;8.58;90.32;98801.69;5075003;28;20017;-71
2022/11/16 01:59:31;;;;;;;;;;;;;;;8.54;90.19;98800.03;5073537;28;19931;-71
2022/11/16 02:02:01;;;;;;;;;;;;;;;8.49;90.21;98794.97;5074610;28;20046;-71
2022/11/16 02:04:30;;;;;;;;;;;;;;;8.50;90.06;98796.63;5074871;28;19935;-71
2022/11/16 02:07:06;;;;;;;;;;;;;;;8.51;90.55;98802.56;5074719;28;19970;-71
2022/11/16 02:12:49;;;;;;;;;;;;;;;8.51;90.51;98789.88;5074484;28;19925;-71
2022/11/16 02:15:25;;;;;;;;;;;;;;;8.54;90.10;98794.94;5074303;28;20337;-71
2022/11/16 02:18:13;;;;;;;;;;;;;;;8.48;90.11;98789.88;5074328;28;19924;-71
2022/11/16 02:21:01;;;;;;;;;;;;;;;8.50;90.64;98790.69;5074683;28;19991;-71
2022/11/16 02:23:50;;;;;;;;;;;;;;;8.50;89.98;98788.16;5074542;28;19931;-71
2022/11/16 02:26:33;;;;;;;;;;;;;;;8.46;90.30;98792.44;5073054;28;19924;-71
2022/11/16 02:29:16;;;;;;;;;;;;;;;8.43;90.33;98782.28;5074520;28;19932;-71
2022/11/16 02:31:49;;;;;;;;;;;;;;;8.41;90.32;98780.59;5072779;28;19924;-71
2022/11/16 02:34:20;;;;;;;;;;;;;;;8.42;90.08;98772.13;5073933;28;19974;-71
2022/11/16 02:36:51;;;;;;;;;;;;;;;8.45;90.35;98764.47;5074115;28;19924;-71
2022/11/16 02:39:23;;;;;;;;;;;;;;;8.47;90.33;98762.78;5073194;28;20306;-71
2022/11/16 02:41:53;;;;;;;;;;;;;;;8.44;90.13;98750.94;5073483;28;19929;-71
2022/11/16 02:44:27;;;;;;;;;;;;;;;8.37;89.27;98750.97;5074404;28;19924;-71
2022/11/16 02:46:58;;;;;;;;;;;;;;;8.35;90.01;98752.69;5074299;28;20010;-71
2022/11/16 02:49:28;;;;;;;;;;;;;;;8.36;90.19;98744.19;5072767;28;19924;-71
2022/11/16 02:51:59;;;;;;;;;;;;;;;8.39;90.37;98744.19;5073991;28;19924;-71
2022/11/16 02:54:28;;;;;;;;;;;;;;;8.38;90.39;98745.03;5072748;28;19931;-71
2022/11/16 02:57:17;;;;;;;;;;;;;;;8.37;90.07;98739.13;5072734;28;19931;-71
2022/11/16 02:59:50;;;;;;;;;;;;;;;8.37;90.17;98731.50;5073614;28;19993;-71
2022/11/16 03:02:24;;;;;;;;;;;;;;;8.34;89.89;98725.56;5073885;28;19975;-71
2022/11/16 03:04:55;;;;;;;;;;;;;;;8.26;89.95;98722.19;5072711;28;19929;-71
2022/11/16 03:07:26;;;;;;;;;;;;;;;8.24;89.50;98719.69;5072914;28;19970;-71
2022/11/16 03:09:56;;;;;;;;;;;;;;;8.25;89.83;98716.31;5073866;28;20393;-71
2022/11/16 03:12:27;;;;;;;;;;;;;;;8.23;89.70;98717.97;5074087;28;19931;-71
2022/11/16 03:14:59;;;;;;;;;;;;;;;8.20;89.29;98712.09;5072605;28;19946;-71
2022/11/16 03:17:29;;;;;;;;;;;;;;;8.17;89.65;98701.94;5073762;28;19925;-71
2022/11/16 03:20:01;;;;;;;;;;;;;;;8.20;89.75;98696.84;5073991;28;20325;-71
2022/11/16 03:22:35;;;;;;;;;;;;;;;8.17;90.10;98695.16;5073162;28;20374;-71
2022/11/16 03:25:04;;;;;;;;;;;;;;;8.09;89.78;98695.22;5072461;28;19966;-71
2022/11/16 03:27:37;;;;;;;;;;;;;;;8.03;89.99;98697.81;5072682;28;19924;-71
2022/11/16 03:30:10;;;;;;;;;;;;;;;8.01;89.83;98701.22;5073545;28;19924;-71
2022/11/16 03:32:45;;;;;;;;;;;;;;;7.99;90.47;98700.38;5073595;28;19999;-71
2022/11/16 03:35:17;;;;;;;;;;;;;;;8.00;89.53;98696.97;5072221;28;19970;-71
2022/11/16 03:37:47;;;;;;;;;;;;;;;8.00;90.13;98695.28;5072819;28;20374;-71
2022/11/16 03:40:17;;;;;;;;;;;;;;;7.98;89.85;98691.06;5073782;28;20404;-71
2022/11/16 03:42:48;;;;;;;;;;;;;;;8.01;89.83;98696.13;5072558;28;20286;-71
2022/11/16 03:45:20;;;;;;;;;;;;;;;8.02;89.86;98680.88;5077224;28;20023;-71
2022/11/16 03:47:50;;;;;;;;;;;;;;;8.02;90.25;98673.25;5077619;28;20019;-71
2022/11/16 03:50:21;;;;;;;;;;;;;;;8.05;90.27;98675.78;5077471;28;19924;-71
2022/11/16 03:52:49;;;;;;;;;;;;;;;8.11;90.38;98673.16;5077093;28;20007;-71
2022/11/16 03:55:18;;;;;;;;;;;;;;;8.12;90.42;98666.41;5077049;28;19975;-71
2022/11/16 03:57:47;;;;;;;;;;;;;;;8.15;90.36;98668.06;5077286;28;20434;-71
2022/11/16 04:00:15;;;;;;;;;;;;;;;8.15;90.05;98663.00;5075910;28;20036;-71
2022/11/16 04:02:46;;;;;;;;;;;;;;;8.15;90.02;98653.69;5075631;28;19924;-71
2022/11/16 04:29:20;;;;;;;;;;;;;;;8.21;90.27;98657.84;5077267;28;19931;-71
2022/11/16 04:39:48;;;;;;;;;;;;;;;8.23;89.82;98651.09;5076492;28;19932;-71
2022/11/16 04:42:21;;;;;;;;;;;;;;;8.25;89.75;98659.53;5075367;28;19990;-71
2022/11/16 04:47:36;;;;;;;;;;;;;;;8.26;89.97;98645.94;5076127;28;19925;-71
2022/11/16 04:50:06;;;;;;;;;;;;;;;8.27;90.67;98638.38;5074908;28;19925;-71
2022/11/16 04:52:35;;;;;;;;;;;;;;;8.27;89.88;98634.97;5075132;28;19924;-71
2022/11/16 04:55:05;;;;;;;;;;;;;;;8.26;90.52;98635.78;5075095;28;19924;-71
2022/11/16 04:57:34;;;;;;;;;;;;;;;8.27;90.62;98632.44;5074767;28;20379;-71
2022/11/16 05:00:04;;;;;;;;;;;;;;;8.29;90.31;98633.25;5075847;28;19946;-71
2022/11/16 05:02:35;;;;;;;;;;;;;;;8.29;90.61;98630.72;5075833;28;19955;-71
2022/11/16 05:05:03;;;;;;;;;;;;;;;8.24;90.64;98632.41;5058409;28;20374;-70
2022/11/16 05:07:34;;;;;;;;;;;;;;;8.25;90.68;98623.94;5074960;28;19970;-71
2022/11/16 05:10:12;;;;;;;;;;;;;;;8.27;90.36;98624.81;5074538;28;19924;-71
2022/11/16 05:12:42;;;;;;;;;;;;;;;8.28;90.10;98618.88;5075945;28;20382;-71
2022/11/16 05:15:11;;;;;;;;;;;;;;;8.29;90.62;98625.63;5074649;28;19925;-71
2022/11/16 05:17:39;;;;;;;;;;;;;;;8.29;90.44;98621.41;5074625;28;20333;-71
2022/11/16 05:22:59;;;;;;;;;;;;;;;8.29;90.44;98626.47;5074368;28;19928;-71
2022/11/16 05:25:32;;;;;;;;;;;;;;;8.31;90.61;98619.69;5074525;28;19948;-71
2022/11/16 05:28:08;;;;;;;;;;;;;;;8.33;90.32;98627.28;5075265;28;19924;-71
2022/11/16 05:30:41;;;;;;;;;;;;;;;8.31;90.48;98621.38;5075310;28;19924;-71
2022/11/16 05:33:10;;;;;;;;;;;;;;;8.31;90.03;98616.28;5075529;28;19947;-71
2022/11/16 05:35:41;;;;;;;;;;;;;;;8.32;90.70;98615.44;5073801;28;20003;-71
2022/11/16 05:38:11;;;;;;;;;;;;;;;8.32;90.77;98616.28;5074216;28;19924;-71
2022/11/16 05:40:44;;;;;;;;;;;;;;;8.31;90.72;98616.28;5075395;28;19951;-71
2022/11/16 05:43:12;;;;;;;;;;;;;;;8.34;90.30;98618.81;5075054;28;19970;-71
2022/11/16 05:45:50;;;;;;;;;;;;;;;8.34;90.71;98619.66;5073929;28;19924;-71
2022/11/16 05:48:21;;;;;;;;;;;;;;;8.35;90.57;98610.34;5074035;28;19983;-71
2022/11/16 05:50:49;;;;;;;;;;;;;;;8.34;90.65;98613.72;5073595;28;19931;-71
2022/11/16 05:53:25;;;;;;;;;;;;;;;8.35;89.89;98600.19;5074753;28;19931;-71
2022/11/16 05:55:54;;;;;;;;;;;;;;;8.37;90.59;98603.53;5074017;28;19925;-72
2022/11/16 05:58:23;;;;;;;;;;;;;;;8.36;90.31;98609.47;5073720;28;19978;-71
2022/11/16 06:00:52;;;;;;;;;;;;;;;8.32;90.59;98605.28;5057031;28;20440;-71
2022/11/16 06:03:21;;;;;;;;;;;;;;;8.32;90.58;98600.19;5074688;28;19924;-71
2022/11/16 06:05:54;;;;;;;;;;;;;;;8.33;90.80;98597.63;5073841;28;19982;-71
2022/11/16 06:08:27;;;;;;;;;;;;;;;8.36;90.38;98597.59;5073577;28;20356;-71
2022/11/16 06:11:01;;;;;;;;;;;;;;;8.35;90.63;98597.63;5074571;28;19931;-71
2022/11/16 06:13:29;;;;;;;;;;;;;;;8.34;90.81;98598.47;5073326;28;19947;-71
2022/11/16 06:16:00;;;;;;;;;;;;;;;8.35;90.63;98600.19;5073228;28;19935;-71
2022/11/16 06:18:31;;;;;;;;;;;;;;;8.37;90.26;98595.91;5074701;28;19967;-71
2022/11/16 06:21:01;;;;;;;;;;;;;;;8.38;91.11;98589.94;5074779;28;19925;-71
2022/11/16 06:23:32;;;;;;;;;;;;;;;8.42;90.68;98589.09;5074263;28;20341;-71
2022/11/16 06:26:00;;;;;;;;;;;;;;;8.41;90.57;98589.94;5073068;28;19925;-71
2022/11/16 06:28:30;;;;;;;;;;;;;;;8.41;90.05;98589.94;5074119;28;20018;-71
2022/11/16 06:30:59;;;;;;;;;;;;;;;8.37;91.07;98588.28;5073304;28;20031;-71
2022/11/16 06:33:31;;;;;;;;;;;;;;;8.38;90.92;98585.72;5072986;28;19924;-71
2022/11/16 06:36:07;;;;;;;;;;;;;;;8.39;91.04;98584.03;5072370;28;20207;-71
2022/11/16 06:38:38;;;;;;;;;;;;;;;8.40;90.93;98584.00;5074054;28;19925;-71
2022/11/16 06:41:07;;;;;;;;;;;;;;;8.38;90.71;98580.63;5074393;28;19925;-71
2022/11/16 06:43:41;;;;;;;;;;;;;;;8.39;90.92;98591.66;5074148;28;20294;-71
2022/11/16 06:46:10;;;;;;;;;;;;;;;8.39;91.11;98587.41;5073004;28;20378;-71
2022/11/16 06:48:40;;;;;;;;;;;;;;;8.36;90.06;98581.50;5074470;28;19978;-71
2022/11/16 06:51:12;;;;;;;;;;;;;;;8.38;90.86;98584.88;5074282;28;20426;-71
2022/11/16 06:53:42;;;;;;;;;;;;;;;8.39;90.73;98586.56;5072748;28;20370;-71
2022/11/16 06:56:13;;;;;;;;;;;;;;;8.40;90.91;98580.59;5073905;28;19925;-71
2022/11/16 06:59:08;;;;;;;;;;;;;;;8.39;91.01;98576.41;5073594;28;19924;-71
2022/11/16 07:01:36;;;;;;;;;;;;;;;8.40;90.96;98572.97;5073124;28;19971;-71
2022/11/16 07:04:11;;;;;;;;;;;;;;;8.40;90.51;98578.91;5073813;28;19974;-71
2022/11/16 07:06:44;;;;;;;;;;;;;;;8.40;90.52;98576.38;5073888;28;19964;-72
2022/11/16 07:09:17;;;;;;;;;;;;;;;8.43;90.77;98578.03;5072518;28;19928;-71
2022/11/16 07:11:45;;;;;;;;;;;;;;;8.41;91.00;98575.53;5074499;28;19963;-71
2022/11/16 07:14:16;;;;;;;;;;;;;;;8.42;90.98;98581.47;5074373;28;20023;-71
2022/11/16 07:16:45;;;;;;;;;;;;;;;8.42;90.61;98584.81;5072343;28;19924;-71
2022/11/16 07:19:13;;;;;;;;;;;;;;;8.40;90.93;98572.97;5076043;28;19986;-71
2022/11/16 07:21:43;;;;;;;;;;;;;;;8.43;91.44;98578.03;5077592;28;19931;-71
2022/11/16 07:24:18;;;;;;;;;;;;;;;8.44;90.40;98574.66;5076550;28;19925;-71
2022/11/16 07:26:47;;;;;;;;;;;;;;;8.45;90.68;98577.16;5076715;28;19925;-71
2022/11/16 07:29:20;;;;;;;;;;;;;;;8.45;91.01;98581.41;5076652;28;19956;-71
2022/11/16 07:32:08;;;;;;;;;;;;;;;8.44;90.77;98584.81;5076719;28;19956;-71
2022/11/16 07:34:48;;;;;;;;;;;;;;;8.45;91.21;98581.41;5077347;28;20259;-71
2022/11/16 07:37:17;;;;;;;;;;;;;;;8.48;91.00;98576.31;5076234;28;20005;-71
2022/11/16 07:39:47;;;;;;;;;;;;;;;8.49;90.60;98573.75;5076186;28;19928;-71
2022/11/16 07:42:16;;;;;;;;;;;;;;;8.51;90.98;98572.03;5089236;28;19928;-71
2022/11/16 07:44:52;;;;;;;;;;;;;;;8.48;90.03;98566.13;5097650;28;19970;-71
2022/11/16 07:47:20;;;;;;;;;;;;;;;8.45;90.90;98566.16;5091822;28;19924;-71
2022/11/16 07:49:48;;;;;;;;;;;;;;;8.46;90.32;98567.84;5075711;28;19928;-71
2022/11/16 07:52:20;;;;;;;;;;;;;;;8.49;90.65;98567.81;5077383;28;19931;-71
2022/11/16 07:55:02;;;;;;;;;;;;;;;8.51;90.98;98564.41;5077151;28;19978;-71
2022/11/16 07:57:31;;;;;;;;;;;;;;;8.54;90.69;98559.28;5075899;28;19955;-71
2022/11/16 08:00:04;;;;;;;;;;;;;;;8.55;90.78;98563.50;5077352;28;20277;-71
2022/11/16 08:02:42;;;;;;;;;;;;;;;8.54;90.91;98563.53;5077341;28;19925;-71
2022/11/16 08:05:17;;;;;;;;;;;;;;;8.57;90.50;98558.41;5076040;28;19983;-71
2022/11/16 08:07:48;;;;;;;;;;;;;;;8.60;90.58;98560.91;5077243;28;19925;-71
2022/11/16 08:10:21;;;;;;;;;;;;;;;8.60;90.42;98556.69;5075506;28;19925;-71
2022/11/16 08:12:50;;;;;;;;;;;;;;;8.60;90.91;98550.75;5076956;28;19924;-71
2022/11/16 08:15:20;;;;;;;;;;;;;;;8.57;90.98;98540.59;5078287;28;19924;-71
2022/11/16 08:17:48;;;;;;;;;;;;;;;8.54;90.70;98540.66;5078467;28;20007;-71
2022/11/16 08:20:17;;;;;;;;;;;;;;;8.54;90.56;98536.38;5075434;28;19974;-71
2022/11/16 08:22:48;;;;;;;;;;;;;;;8.58;91.16;98544.84;5076543;28;19931;-71
2022/11/16 08:25:18;;;;;;;;;;;;;;;8.61;91.43;98537.19;5086927;28;19973;-71
2022/11/16 08:27:48;;;;;;;;;;;;;;;8.64;90.77;98543.06;5076467;28;19924;-71
2022/11/16 08:30:20;;;;;;;;;;;;;;;8.66;91.05;98532.88;5074798;28;19924;-71
2022/11/16 08:32:49;;;;;;;;;;;;;;;8.70;91.20;98542.16;5075578;28;19930;-71
2022/11/16 08:35:17;;;;;;;;;;;;;;;8.72;90.92;98530.25;5076082;28;19968;-71
2022/11/16 08:37:45;;;;;;;;;;;;;;;8.74;91.28;98531.94;5075661;28;19928;-71
2022/11/16 08:40:15;;;;;;;;;;;;;;;8.75;90.60;98520.06;5076538;28;20374;-71
2022/11/16 08:42:44;;;;;;;;;;;;;;;8.78;90.50;98518.31;5076180;28;19925;-71
2022/11/16 08:45:14;;;;;;;;;;;;;;;8.82;90.30;98521.66;5084520;28;19939;-71
2022/11/16 08:47:42;;;;;;;;;;;;;;;8.88;90.29;98523.28;5086739;28;19932;-71
2022/11/16 08:50:11;;;;;;;;;;;;;;;9.00;90.47;98516.31;5075182;28;19925;-71
2022/11/16 08:52:39;;;;;;;;;;;;;;;9.08;90.58;98524.72;5076010;28;19925;-71
2022/11/16 08:55:09;;;;;;;;;;;;;;;9.12;89.72;98516.16;5074791;28;19925;-71
2022/11/16 08:57:38;;;;;;;;;;;;;;;9.14;89.71;98513.59;5077373;28;20435;-71
2022/11/16 09:00:11;;;;;;;;;;;;;;;9.19;89.72;98517.75;5085804;28;19955;-71
2022/11/16 09:02:40;;;;;;;;;;;;;;;9.23;89.87;98509.22;5086581;28;19928;-71
2022/11/16 09:05:11;;;;;;;;;;;;;;;9.28;89.65;98510.00;5075423;28;20362;-71
2022/11/16 09:07:42;;;;;;;;;;;;;;;9.31;89.05;98506.53;5075272;28;19932;-71
2022/11/16 09:10:10;;;;;;;;;;;;;;;9.37;89.10;98503.94;5083882;28;20378;-72
2022/11/16 09:12:39;;;;;;;;;;;;;;;9.42;88.92;98495.38;5075743;28;19939;-71
2022/11/16 09:15:08;;;;;;;;;;;;;;;9.48;88.28;98503.78;5075102;28;19980;-72
2022/11/16 09:17:36;;;;;;;;;;;;;;;9.45;88.26;98495.28;5074615;28;19932;-71
2022/11/16 09:20:07;;;;;;;;;;;;;;;9.43;88.06;98491.09;5075687;28;19947;-71
2022/11/16 09:22:35;;;;;;;;;;;;;;;9.40;87.08;98502.19;5075442;28;19974;-71
2022/11/16 09:25:04;;;;;;;;;;;;;;;9.35;87.33;98493.78;5075047;28;19924;-71
2022/11/16 09:27:32;;;;;;;;;;;;;;;9.45;86.99;98495.28;5075002;28;20007;-71
2022/11/16 09:30:00;;;;;;;;;;;;;;;9.53;87.40;98487.53;5074301;28;19924;-70
2022/11/16 09:32:29;;;;;;;;;;;;;;;9.53;86.48;98486.69;5075061;28;19929;-71
2022/11/16 09:34:57;;;;;;;;;;;;;;;9.50;86.33;98487.63;5074652;28;19924;-71
2022/11/16 09:37:26;;;;;;;;;;;;;;;9.50;86.09;98485.06;5074293;28;21422;-71
2022/11/16 09:39:56;;;;;;;;;;;;;;;9.51;85.93;98490.97;5083508;28;20269;-71
2022/11/16 09:42:33;;;;;;;;;;;;;;;9.57;86.41;98493.44;5077864;28;19930;-72
2022/11/16 09:45:05;;;;;;;;;;;;;;;9.63;85.99;98488.25;5074978;28;19990;-72
2022/11/16 09:47:40;;;;;;;;;;;;;;;9.63;85.81;98488.25;5075331;28;19924;-71
2022/11/16 09:50:16;;;;;;;;;;;;;;;9.64;86.21;98493.31;5074832;28;19924;-71
2022/11/16 09:52:49;;;;;;;;;;;;;;;9.65;85.97;98486.50;5074826;28;20436;-71
2022/11/16 09:55:23;;;;;;;;;;;;;;;9.68;85.82;98491.56;5073858;28;19924;-71
2022/11/16 09:57:54;;;;;;;;;;;;;;;9.69;85.67;98472.88;5075008;28;19924;-71
2022/11/16 10:00:23;;;;;;;;;;;;;;;9.69;85.13;98472.88;5075043;28;19928;-71
2022/11/16 10:02:58;;;;;;;;;;;;;;;9.72;85.23;98467.69;5074513;28;19924;-71
2022/11/16 10:05:28;;;;;;;;;;;;;;;9.71;85.18;98466.88;5074570;28;19929;-71
2022/11/16 10:08:03;;;;;;;;;;;;;;;9.69;85.28;98462.69;5081541;28;19932;-71
2022/11/16 10:10:35;;;;;;;;;;;;;;;9.70;85.39;98459.25;5074644;28;19928;-71
2022/11/16 10:13:08;;;;;;;;;;;;;;;9.73;85.35;98459.19;5080174;28;20026;-71
2022/11/16 10:15:43;;;;;;;;;;;;;;;9.77;85.41;98450.63;5094659;28;20382;-71
2022/11/16 10:18:25;;;;;;;;;;;;;;;9.74;85.20;98448.16;5086807;28;19926;-71
2022/11/16 10:21:02;;;;;;;;;;;;;;;9.74;84.89;98450.72;5084368;28;19931;-71
2022/11/16 10:23:39;;;;;;;;;;;;;;;9.75;85.35;98445.56;5083072;28;20379;-71
2022/11/16 10:26:15;;;;;;;;;;;;;;;9.73;85.06;98433.72;5090361;28;19924;-71
2022/11/16 10:28:53;;;;;;;;;;;;;;;9.69;84.98;98437.22;5094246;28;20382;-71
2022/11/16 10:31:26;;;;;;;;;;;;;;;9.65;85.03;98436.41;5094321;28;19974;-71
2022/11/16 10:33:57;;;;;;;;;;;;;;;9.64;84.47;98434.75;5094169;28;19924;-71
2022/11/16 10:36:29;;;;;;;;;;;;;;;9.65;85.15;98433.00;5094325;28;19939;-71
2022/11/16 10:39:01;;;;;;;;;;;;;;;9.68;84.97;98427.88;5094342;28;19951;-71
2022/11/16 10:41:33;;;;;;;;;;;;;;;9.69;84.46;98427.84;5093890;28;19959;-71
2022/11/16 10:44:02;;;;;;;;;;;;;;;9.71;84.86;98425.28;5094588;28;19928;-71
2022/11/16 10:46:33;;;;;;;;;;;;;;;9.71;84.95;98420.19;5094154;28;19930;-71
2022/11/16 10:49:06;;;;;;;;;;;;;;;9.73;84.82;98423.53;5094519;28;19931;-71
2022/11/16 10:51:35;;;;;;;;;;;;;;;9.74;84.18;98423.50;5094483;28;19924;-71
2022/11/16 10:54:11;;;;;;;;;;;;;;;9.75;84.21;98417.53;5093847;28;19968;-71
2022/11/16 10:56:44;;;;;;;;;;;;;;;9.80;84.26;98420.84;5088996;28;19924;-71
2022/11/16 10:59:13;;;;;;;;;;;;;;;9.82;84.56;98423.38;5084142;28;19925;-71
2022/11/16 11:01:42;;;;;;;;;;;;;;;9.84;84.40;98416.53;5080362;28;19924;-71
2022/11/16 11:04:13;;;;;;;;;;;;;;;9.85;84.61;98418.22;5082926;28;19924;-71
2022/11/16 11:06:41;;;;;;;;;;;;;;;9.86;84.50;98420.72;5082342;28;19924;-70
2022/11/16 11:09:16;;;;;;;;;;;;;;;9.89;84.27;98417.28;5077619;28;19931;-71
2022/11/16 11:14:36;;;;;;;;;;;;;;;9.89;84.45;98424.94;5074142;28;20305;-71
2022/11/16 11:17:11;;;;;;;;;;;;;;;9.89;84.18;98424.94;5084547;28;19924;-71
2022/11/16 11:19:39;;;;;;;;;;;;;;;9.90;84.34;98424.06;5073881;28;20382;-71
2022/11/16 11:22:13;;;;;;;;;;;;;;;9.90;84.27;98419.84;5073651;28;20366;-71
2022/11/16 11:24:48;;;;;;;;;;;;;;;9.89;84.24;98417.28;5073774;28;19925;-71
2022/11/16 11:27:22;;;;;;;;;;;;;;;9.86;83.63;98409.72;5072748;28;19932;-71
2022/11/16 11:29:52;;;;;;;;;;;;;;;9.86;83.91;98417.38;5073571;28;19932;-71
2022/11/16 11:32:22;;;;;;;;;;;;;;;9.87;83.82;98412.22;5073772;28;20392;-71
2022/11/16 11:34:53;;;;;;;;;;;;;;;9.89;83.10;98409.66;5077066;28;19932;-71
2022/11/16 11:37:23;;;;;;;;;;;;;;;9.93;83.78;98412.09;5073401;28;19928;-71
2022/11/16 11:40:07;;;;;;;;;;;;;;;9.96;83.64;98408.66;5073849;28;19947;-70
2022/11/16 11:42:40;;;;;;;;;;;;;;;9.97;83.66;98400.16;5073296;28;19931;-70
2022/11/16 11:45:12;;;;;;;;;;;;;;;9.99;83.51;98395.88;5073355;28;19928;-70
2022/11/16 11:47:46;;;;;;;;;;;;;;;9.99;83.33;98395.88;5078904;28;20405;-71
2022/11/16 11:50:38;;;;;;;;;;;;;;;10.00;83.16;98393.31;5073520;28;20420;-70
2022/11/16 11:53:12;;;;;;;;;;;;;;;10.02;83.20;98400.91;5073733;28;19925;-70
2022/11/16 11:55:42;;;;;;;;;;;;;;;10.02;83.23;98386.47;5085339;28;19924;-70
2022/11/16 11:58:15;;;;;;;;;;;;;;;10.04;83.08;98379.63;5085848;28;20386;-71
2022/11/16 12:00:46;;;;;;;;;;;;;;;10.05;82.93;98381.28;5073150;28;19925;-70
2022/11/16 12:03:32;;;;;;;;;;;;;;;10.06;82.37;98370.22;5072985;28;20601;-70
2022/11/16 12:06:12;;;;;;;;;;;;;;;10.07;82.61;98369.38;5046283;28;19968;-69
2022/11/16 12:08:58;;;;;;;;;;;;;;;10.10;82.25;98368.47;5076829;28;19924;-70
2022/11/16 12:11:33;;;;;;;;;;;;;;;10.11;82.44;98365.03;5066740;28;19975;-71
2022/11/16 12:14:09;;;;;;;;;;;;;;;10.11;82.24;98365.03;5076679;28;19924;-70
2022/11/16 12:16:43;;;;;;;;;;;;;;;10.14;82.21;98365.03;5076717;28;19954;-70
2022/11/16 12:19:26;;;;;;;;;;;;;;;10.15;82.27;98364.13;5076720;28;19924;-71
2022/11/16 12:22:02;;;;;;;;;;;;;;;10.14;82.24;98365.03;5077398;28;19932;-73
2022/11/16 12:24:43;;;;;;;;;;;;;;;10.15;82.49;98365.88;5085753;28;20003;-71
2022/11/16 12:27:18;;;;;;;;;;;;;;;10.16;82.31;98365.81;5076439;28;19925;-71
2022/11/16 12:29:53;;;;;;;;;;;;;;;10.16;82.58;98360.72;5079917;28;19931;-71
2022/11/16 12:32:33;;;;;;;;;;;;;;;10.13;82.19;98360.78;5090739;28;19932;-71
2022/11/16 12:35:11;;;;;;;;;;;;;;;10.15;81.90;98351.38;5096404;28;19930;-71
2022/11/16 12:37:45;;;;;;;;;;;;;;;10.14;82.07;98349.72;5096995;28;20366;-71
2022/11/16 12:40:23;;;;;;;;;;;;;;;10.15;81.80;98350.56;5096884;28;20348;-71
2022/11/16 12:42:56;;;;;;;;;;;;;;;10.17;81.81;98348.81;5090914;28;20423;-71
2022/11/16 12:45:35;;;;;;;;;;;;;;;10.16;81.85;98347.13;5096641;28;19979;-71
2022/11/16 12:48:12;;;;;;;;;;;;;;;10.15;82.01;98341.19;5095099;28;19977;-71
2022/11/16 12:50:45;;;;;;;;;;;;;;;10.13;82.08;98337.84;5082655;28;19931;-71
2022/11/16 12:53:22;;;;;;;;;;;;;;;10.14;82.17;98333.59;5076092;28;19924;-71
2022/11/16 12:55:57;;;;;;;;;;;;;;;10.12;81.66;98331.09;5075971;28;19925;-71
2022/11/16 12:58:34;;;;;;;;;;;;;;;10.13;81.66;98327.63;5075988;28;19924;-71
2022/11/16 13:01:09;;;;;;;;;;;;;;;10.13;81.92;98320.00;5075918;28;19924;-71
2022/11/16 13:03:41;;;;;;;;;;;;;;;10.14;81.49;98329.34;5076200;28;19924;-71
2022/11/16 13:06:14;;;;;;;;;;;;;;;10.14;81.67;98324.22;5075734;28;19928;-71
2022/11/16 13:08:50;;;;;;;;;;;;;;;10.14;81.66;98319.13;5075620;28;19924;-70
2022/11/16 13:11:20;;;;;;;;;;;;;;;10.15;81.68;98309.78;5082503;28;19985;-71
2022/11/16 13:13:53;;;;;;;;;;;;;;;10.14;81.98;98313.19;5085494;28;19932;-71
2022/11/16 13:16:22;;;;;;;;;;;;;;;10.14;81.63;98311.50;5095452;28;19946;-71
2022/11/16 13:18:52;;;;;;;;;;;;;;;10.16;81.88;98302.09;5088719;28;20451;-71
2022/11/16 13:21:28;;;;;;;;;;;;;;;10.15;81.57;98299.59;5086538;28;20378;-71
2022/11/16 13:24:02;;;;;;;;;;;;;;;10.14;81.40;98308.94;5084281;28;19995;-71
2022/11/16 13:26:34;;;;;;;;;;;;;;;10.13;81.71;98297.06;5074848;28;19925;-70
2022/11/16 13:29:11;;;;;;;;;;;;;;;10.15;81.61;98299.59;5074805;28;20011;-72
2022/11/16 13:31:43;;;;;;;;;;;;;;;10.15;81.59;98295.31;5074618;28;20404;-72
2022/11/16 13:34:14;;;;;;;;;;;;;;;10.14;81.57;98298.75;5074522;28;19928;-71
2022/11/16 13:36:44;;;;;;;;;;;;;;;10.13;81.30;98291.94;5074567;28;19970;-71
2022/11/16 13:39:14;;;;;;;;;;;;;;;10.14;81.38;98296.19;5074426;28;19924;-72
2022/11/16 13:41:50;;;;;;;;;;;;;;;10.15;81.25;98292.75;5074920;28;19935;-71
2022/11/16 13:44:26;;;;;;;;;;;;;;;10.14;81.29;98297.91;5074868;28;19924;-70
2022/11/16 13:46:56;;;;;;;;;;;;;;;10.15;81.70;98302.94;5075374;28;19924;-70
2022/11/16 13:49:32;;;;;;;;;;;;;;;10.18;81.30;98304.59;5074947;28;19932;-72
2022/11/16 13:52:03;;;;;;;;;;;;;;;10.18;81.30;98309.69;5081672;28;20401;-71
2022/11/16 13:54:51;;;;;;;;;;;;;;;10.16;81.23;98302.09;5089078;28;19950;-69
2022/11/16 13:57:23;;;;;;;;;;;;;;;10.14;80.92;98298.75;5081291;28;20352;-71
2022/11/16 13:59:56;;;;;;;;;;;;;;;10.12;80.88;98305.59;5074749;28;19924;-70
2022/11/16 14:02:32;;;;;;;;;;;;;;;10.11;81.51;98303.88;5076606;28;19924;-71
2022/11/16 14:05:01;;;;;;;;;;;;;;;10.10;81.30;98304.75;5082110;28;19931;-71
2022/11/16 14:07:39;;;;;;;;;;;;;;;10.10;81.45;98304.75;5074516;28;19970;-71
2022/11/16 14:10:07;;;;;;;;;;;;;;;10.10;80.93;98304.75;5072578;28;20011;-71